METAR-Meldungen aus der Umgebung


Warning: A non-numeric value encountered in /homepages/1/d50633195/htdocs/bad-muskau-wetter/weather28/metar/metarDisplay.php on line 168

Warning: A non-numeric value encountered in /homepages/1/d50633195/htdocs/bad-muskau-wetter/weather28/metar/metarDisplay.php on line 168

Warning: A non-numeric value encountered in /homepages/1/d50633195/htdocs/bad-muskau-wetter/weather28/metar/metarDisplay.php on line 168

Warning: A non-numeric value encountered in /homepages/1/d50633195/htdocs/bad-muskau-wetter/weather28/metar/metarDisplay.php on line 168

Warning: A non-numeric value encountered in /homepages/1/d50633195/htdocs/bad-muskau-wetter/weather28/metar/metarDisplay.php on line 168

Warning: A non-numeric value encountered in /homepages/1/d50633195/htdocs/bad-muskau-wetter/weather28/metar/metarDisplay.php on line 168

Warning: A non-numeric value encountered in /homepages/1/d50633195/htdocs/bad-muskau-wetter/weather28/metar/metarDisplay.php on line 168
   
EDDC - Dresden/Klotzsch, Germany
Entfernung von der Station bis: SW 82 km
Aktualisierung: 28-03-2020 08:20
Klar  
Klar  
   Wind: variiert 3.7 km/h
Wind: variiert 3.7 km/h
Temperatur: 5°C
Taupunkt: 1°C
Luftfeuchte: 76%
Luftdruck: 1019 hPa
Sichtbarkeit: More than 10 km
Bewölkung: Klar
EDDC 280720Z VRB02KT CAVOK 05/01 Q1019 NOSIG
EPZG - Zielona Gora, Poland
Entfernung von der Station bis: NO 99 km
Aktualisierung: 28-03-2020 08:30
Nebel, Teilweise bewölkt  
Nebel, Teilweise bewölkt  
   Wind: variiert 3.7 km/h
Wind: variiert 3.7 km/h
Temperatur: 5°C
Taupunkt: 1°C
Luftfeuchte: 76%
Luftdruck: 1019 hPa
Bewölkt: Teilweise bewölkt
Sichtbarkeit: 5 km
Bewölkung: Teilweise bewölkt
EPZG 280730Z VRB02KT 5000 BR NSC 05/01 Q1019
ETSH - Holzdorf, Germany
Entfernung von der Station bis: WNW 110 km
Aktualisierung: 28-03-2020 08:20
  
  
   Wind: NNW 7.4 km/h
Wind: NNW 7.4 km/h
Temperatur: 4°C
Gefühlt: 2°C
Taupunkt: 1°C
Luftfeuchte: 81%
Luftdruck: 1020 hPa
Sichtbarkeit: 6 km
ETSH 280720Z AUTO 34004KT 6000 // ////// 04/01 Q1020 ///
EDDB - Berlin/Schonefel, Germany
Entfernung von der Station bis: NW 124 km
Aktualisierung: 28-03-2020 08:20
Klar  
Klar  
   Wind: Norden 11.1 km/h
Wind: Norden 11.1 km/h
Temperatur: 5°C
Gefühlt: 2°C
Taupunkt: 2°C
Luftfeuchte: 81%
Luftdruck: 1020 hPa
Sichtbarkeit: More than 10 km
Bewölkung: Klar
EDDB 280720Z 35006KT CAVOK 05/02 Q1020 NOSIG
EDDT - Berlin/Tegel (fa, Germany
Entfernung von der Station bis: NW 149 km
Aktualisierung: 28-03-2020 08:20
Klar  
Klar  
   Wind: NNW 9.3 km/h
Wind: NNW 9.3 km/h
Temperatur: 5°C
Gefühlt: 3°C
Taupunkt: 1°C
Luftfeuchte: 76%
Luftdruck: 1020 hPa
Sichtbarkeit: More than 10 km
Bewölkung: Klar
EDDT 280720Z 34005KT 300V020 CAVOK 05/01 Q1020 NOSIG
LKVO - Vodochody, Czech Republic
Entfernung von der Station bis: S 149 km
Aktualisierung: 28-03-2020 08:30
Klar  
Klar  
   Wind: WNW 7.4 km/h
Wind: WNW 7.4 km/h
Temperatur: 8°C
Gefühlt: 7°C
Taupunkt: 2°C
Luftfeuchte: 66%
Luftdruck: 1017 hPa
Sichtbarkeit: More than 10 km
Bewölkung: Klar
LKVO 280730Z 29004KT CAVOK 08/02 Q1017
EPWR - Wroclaw/Strachow, Poland
Entfernung von der Station bis: OSO 157 km
Aktualisierung: 28-03-2020 08:30
Teilweise bewölkt  
Teilweise bewölkt  
   Wind: variiert 3.7 km/h
Wind: variiert 3.7 km/h
Temperatur: 7°C
Taupunkt: 0°C
Luftfeuchte: 61%
Luftdruck: 1018 hPa
Bewölkt: Teilweise bewölkt
Sichtbarkeit: 9 km
Bewölkung: Teilweise bewölkt
EPWR 280730Z VRB02KT 9000 NSC 07/M00 Q1018
LKKB - Kbely, Czech Republic
Entfernung von der Station bis: S 159 km
Aktualisierung: 28-03-2020 08:00
Klar  
Klar  
   Wind: SSW 7.4 km/h
Wind: SSW 7.4 km/h
Temperatur: 5°C
Gefühlt: 3°C
Taupunkt: 1°C
Luftfeuchte: 76%
Luftdruck: 1017 hPa
Sichtbarkeit: More than 10 km
Bewölkung: Klar
LKKB 280700Z 20004KT CAVOK 05/01 Q1017 NOSIG
 

Script entwickelt von  Saratoga-weather.org Angepasst für das Template von  Weerstation Leuven